sensor_id;sensor_type;location;lat;lon;timestamp;P1;durP1;ratioP1;P2;durP2;ratioP2
6751;SDS011;3413;47.680;9.166;2023-08-21T00:04:31;10.83;;;3.57;;
6751;SDS011;3413;47.680;9.166;2023-08-21T00:09:33;5.43;;;3.50;;
6751;SDS011;3413;47.680;9.166;2023-08-21T00:14:35;8.30;;;3.87;;
6751;SDS011;3413;47.680;9.166;2023-08-21T00:19:36;8.57;;;4.07;;
6751;SDS011;3413;47.680;9.166;2023-08-21T00:24:38;10.77;;;4.23;;
6751;SDS011;3413;47.680;9.166;2023-08-21T00:29:40;10.50;;;3.73;;
6751;SDS011;3413;47.680;9.166;2023-08-21T00:34:42;4.90;;;3.40;;
6751;SDS011;3413;47.680;9.166;2023-08-21T00:39:44;11.83;;;4.13;;
6751;SDS011;3413;47.680;9.166;2023-08-21T00:44:46;9.93;;;4.13;;
6751;SDS011;3413;47.680;9.166;2023-08-21T00:49:48;9.33;;;4.30;;
6751;SDS011;3413;47.680;9.166;2023-08-21T00:54:50;9.60;;;3.90;;
6751;SDS011;3413;47.680;9.166;2023-08-21T00:59:53;17.67;;;4.00;;
6751;SDS011;3413;47.680;9.166;2023-08-21T01:04:55;8.17;;;4.37;;
6751;SDS011;3413;47.680;9.166;2023-08-21T01:10:06;5.47;;;3.47;;
6751;SDS011;3413;47.680;9.166;2023-08-21T01:15:16;6.40;;;3.70;;
6751;SDS011;3413;47.680;9.166;2023-08-21T01:20:19;8.07;;;4.10;;
6751;SDS011;3413;47.680;9.166;2023-08-21T01:25:23;11.50;;;3.80;;
6751;SDS011;3413;47.680;9.166;2023-08-21T01:30:25;10.90;;;3.97;;
6751;SDS011;3413;47.680;9.166;2023-08-21T01:35:30;5.60;;;3.47;;
6751;SDS011;3413;47.680;9.166;2023-08-21T01:40:34;8.10;;;3.93;;
6751;SDS011;3413;47.680;9.166;2023-08-21T01:45:36;9.93;;;4.60;;
6751;SDS011;3413;47.680;9.166;2023-08-21T01:50:38;8.70;;;4.20;;
6751;SDS011;3413;47.680;9.166;2023-08-21T01:55:40;8.97;;;4.57;;
6751;SDS011;3413;47.680;9.166;2023-08-21T02:00:45;6.10;;;3.37;;
6751;SDS011;3413;47.680;9.166;2023-08-21T02:05:47;11.03;;;3.90;;
6751;SDS011;3413;47.680;9.166;2023-08-21T02:10:50;7.67;;;4.07;;
6751;SDS011;3413;47.680;9.166;2023-08-21T02:15:52;6.67;;;3.57;;
6751;SDS011;3413;47.680;9.166;2023-08-21T02:20:54;14.13;;;4.63;;
6751;SDS011;3413;47.680;9.166;2023-08-21T02:25:56;14.57;;;4.43;;
6751;SDS011;3413;47.680;9.166;2023-08-21T02:30:58;8.53;;;4.10;;
6751;SDS011;3413;47.680;9.166;2023-08-21T02:36:00;8.00;;;4.03;;
6751;SDS011;3413;47.680;9.166;2023-08-21T02:41:04;10.80;;;4.47;;
6751;SDS011;3413;47.680;9.166;2023-08-21T02:46:06;11.33;;;4.00;;
6751;SDS011;3413;47.680;9.166;2023-08-21T02:51:07;11.10;;;3.97;;
6751;SDS011;3413;47.680;9.166;2023-08-21T02:56:09;7.27;;;4.40;;
6751;SDS011;3413;47.680;9.166;2023-08-21T03:01:12;11.40;;;4.70;;
6751;SDS011;3413;47.680;9.166;2023-08-21T03:06:14;8.17;;;4.13;;
6751;SDS011;3413;47.680;9.166;2023-08-21T03:11:17;7.27;;;4.23;;
6751;SDS011;3413;47.680;9.166;2023-08-21T03:16:20;8.73;;;4.20;;
6751;SDS011;3413;47.680;9.166;2023-08-21T03:21:22;7.57;;;4.20;;
6751;SDS011;3413;47.680;9.166;2023-08-21T03:26:25;7.60;;;4.47;;
6751;SDS011;3413;47.680;9.166;2023-08-21T03:31:29;6.87;;;4.00;;
6751;SDS011;3413;47.680;9.166;2023-08-21T03:36:31;9.20;;;4.20;;
6751;SDS011;3413;47.680;9.166;2023-08-21T03:41:36;8.80;;;4.73;;
6751;SDS011;3413;47.680;9.166;2023-08-21T03:46:38;11.13;;;4.70;;
6751;SDS011;3413;47.680;9.166;2023-08-21T03:51:40;7.87;;;4.20;;
6751;SDS011;3413;47.680;9.166;2023-08-21T03:56:43;9.43;;;4.80;;
6751;SDS011;3413;47.680;9.166;2023-08-21T04:01:45;7.40;;;4.47;;
6751;SDS011;3413;47.680;9.166;2023-08-21T04:06:47;9.73;;;4.83;;
6751;SDS011;3413;47.680;9.166;2023-08-21T04:11:49;9.13;;;4.40;;
6751;SDS011;3413;47.680;9.166;2023-08-21T04:16:51;6.10;;;3.73;;
6751;SDS011;3413;47.680;9.166;2023-08-21T04:21:53;9.90;;;5.07;;
6751;SDS011;3413;47.680;9.166;2023-08-21T04:26:55;6.43;;;4.13;;
6751;SDS011;3413;47.680;9.166;2023-08-21T04:31:58;9.77;;;5.20;;
6751;SDS011;3413;47.680;9.166;2023-08-21T04:37:00;17.77;;;5.07;;
6751;SDS011;3413;47.680;9.166;2023-08-21T04:42:02;7.20;;;4.73;;
6751;SDS011;3413;47.680;9.166;2023-08-21T04:52:24;8.67;;;4.80;;
6751;SDS011;3413;47.680;9.166;2023-08-21T04:57:28;7.67;;;4.43;;
6751;SDS011;3413;47.680;9.166;2023-08-21T05:02:31;9.80;;;4.70;;
6751;SDS011;3413;47.680;9.166;2023-08-21T05:07:35;8.67;;;4.93;;
6751;SDS011;3413;47.680;9.166;2023-08-21T05:12:37;10.53;;;4.83;;
6751;SDS011;3413;47.680;9.166;2023-08-21T05:17:40;9.40;;;4.70;;
6751;SDS011;3413;47.680;9.166;2023-08-21T05:22:42;13.60;;;5.60;;
6751;SDS011;3413;47.680;9.166;2023-08-21T05:27:45;8.43;;;5.33;;
6751;SDS011;3413;47.680;9.166;2023-08-21T05:32:47;12.30;;;5.03;;
6751;SDS011;3413;47.680;9.166;2023-08-21T05:37:48;8.07;;;5.10;;
6751;SDS011;3413;47.680;9.166;2023-08-21T05:42:54;9.37;;;4.80;;
6751;SDS011;3413;47.680;9.166;2023-08-21T05:47:57;10.07;;;5.10;;
6751;SDS011;3413;47.680;9.166;2023-08-21T05:52:59;11.47;;;4.83;;
6751;SDS011;3413;47.680;9.166;2023-08-21T05:58:03;12.40;;;5.10;;
6751;SDS011;3413;47.680;9.166;2023-08-21T06:03:05;12.73;;;5.70;;
6751;SDS011;3413;47.680;9.166;2023-08-21T06:08:19;19.40;;;6.10;;
6751;SDS011;3413;47.680;9.166;2023-08-21T06:13:21;18.73;;;5.70;;
6751;SDS011;3413;47.680;9.166;2023-08-21T06:18:25;12.40;;;5.87;;
6751;SDS011;3413;47.680;9.166;2023-08-21T06:23:28;10.17;;;5.73;;
6751;SDS011;3413;47.680;9.166;2023-08-21T06:28:30;12.20;;;5.83;;
6751;SDS011;3413;47.680;9.166;2023-08-21T06:33:31;9.93;;;5.37;;
6751;SDS011;3413;47.680;9.166;2023-08-21T06:38:34;9.40;;;5.30;;
6751;SDS011;3413;47.680;9.166;2023-08-21T06:43:38;16.17;;;6.57;;
6751;SDS011;3413;47.680;9.166;2023-08-21T06:48:46;15.63;;;5.93;;
6751;SDS011;3413;47.680;9.166;2023-08-21T06:53:48;11.50;;;5.67;;
6751;SDS011;3413;47.680;9.166;2023-08-21T06:58:50;14.97;;;6.00;;
6751;SDS011;3413;47.680;9.166;2023-08-21T07:03:52;11.17;;;5.83;;
6751;SDS011;3413;47.680;9.166;2023-08-21T07:08:54;16.47;;;6.67;;
6751;SDS011;3413;47.680;9.166;2023-08-21T07:13:56;19.60;;;6.00;;
6751;SDS011;3413;47.680;9.166;2023-08-21T07:18:58;11.23;;;5.40;;
6751;SDS011;3413;47.680;9.166;2023-08-21T07:24:01;11.90;;;6.10;;
6751;SDS011;3413;47.680;9.166;2023-08-21T07:29:05;16.50;;;6.10;;
6751;SDS011;3413;47.680;9.166;2023-08-21T07:34:07;11.00;;;5.67;;
6751;SDS011;3413;47.680;9.166;2023-08-21T07:39:09;12.20;;;6.27;;
6751;SDS011;3413;47.680;9.166;2023-08-21T07:44:11;12.23;;;5.87;;
6751;SDS011;3413;47.680;9.166;2023-08-21T07:49:13;15.63;;;6.00;;
6751;SDS011;3413;47.680;9.166;2023-08-21T07:54:15;8.50;;;5.20;;
6751;SDS011;3413;47.680;9.166;2023-08-21T07:59:17;9.00;;;5.40;;
6751;SDS011;3413;47.680;9.166;2023-08-21T08:04:21;14.27;;;5.23;;
6751;SDS011;3413;47.680;9.166;2023-08-21T08:09:23;17.40;;;4.70;;
6751;SDS011;3413;47.680;9.166;2023-08-21T08:14:26;9.90;;;4.37;;
6751;SDS011;3413;47.680;9.166;2023-08-21T08:19:28;13.20;;;4.70;;
6751;SDS011;3413;47.680;9.166;2023-08-21T08:24:30;13.60;;;5.10;;
6751;SDS011;3413;47.680;9.166;2023-08-21T08:29:32;7.90;;;4.30;;
6751;SDS011;3413;47.680;9.166;2023-08-21T08:34:33;10.70;;;4.67;;
6751;SDS011;3413;47.680;9.166;2023-08-21T08:39:35;8.27;;;5.17;;
6751;SDS011;3413;47.680;9.166;2023-08-21T08:44:37;9.40;;;4.70;;
6751;SDS011;3413;47.680;9.166;2023-08-21T08:49:42;11.30;;;4.83;;
6751;SDS011;3413;47.680;9.166;2023-08-21T08:54:44;8.60;;;4.80;;
6751;SDS011;3413;47.680;9.166;2023-08-21T08:59:47;8.50;;;4.70;;
6751;SDS011;3413;47.680;9.166;2023-08-21T09:04:48;14.90;;;4.93;;
6751;SDS011;3413;47.680;9.166;2023-08-21T09:09:50;10.77;;;5.30;;
6751;SDS011;3413;47.680;9.166;2023-08-21T09:14:54;11.40;;;4.47;;
6751;SDS011;3413;47.680;9.166;2023-08-21T09:20:02;9.50;;;4.60;;
6751;SDS011;3413;47.680;9.166;2023-08-21T09:25:09;10.03;;;4.53;;
6751;SDS011;3413;47.680;9.166;2023-08-21T09:30:11;12.97;;;5.03;;
6751;SDS011;3413;47.680;9.166;2023-08-21T09:35:17;9.20;;;4.47;;
6751;SDS011;3413;47.680;9.166;2023-08-21T09:40:20;11.80;;;5.40;;
6751;SDS011;3413;47.680;9.166;2023-08-21T09:45:23;8.20;;;4.97;;
6751;SDS011;3413;47.680;9.166;2023-08-21T09:50:26;11.23;;;4.43;;
6751;SDS011;3413;47.680;9.166;2023-08-21T09:55:31;12.50;;;5.57;;
6751;SDS011;3413;47.680;9.166;2023-08-21T10:00:35;11.67;;;4.20;;
6751;SDS011;3413;47.680;9.166;2023-08-21T10:05:39;8.73;;;4.33;;
6751;SDS011;3413;47.680;9.166;2023-08-21T10:10:41;10.23;;;4.60;;
6751;SDS011;3413;47.680;9.166;2023-08-21T10:15:43;7.03;;;4.53;;
6751;SDS011;3413;47.680;9.166;2023-08-21T10:20:49;13.73;;;6.17;;
6751;SDS011;3413;47.680;9.166;2023-08-21T10:25:57;12.83;;;4.60;;
6751;SDS011;3413;47.680;9.166;2023-08-21T10:41:52;7.67;;;3.90;;
6751;SDS011;3413;47.680;9.166;2023-08-21T10:46:56;17.07;;;4.60;;
6751;SDS011;3413;47.680;9.166;2023-08-21T10:52:22;9.67;;;5.10;;
6751;SDS011;3413;47.680;9.166;2023-08-21T10:57:26;8.87;;;4.63;;
6751;SDS011;3413;47.680;9.166;2023-08-21T11:02:32;21.03;;;5.00;;
6751;SDS011;3413;47.680;9.166;2023-08-21T11:07:38;16.30;;;4.80;;
6751;SDS011;3413;47.680;9.166;2023-08-21T11:12:55;9.57;;;4.93;;
6751;SDS011;3413;47.680;9.166;2023-08-21T11:17:59;11.77;;;5.47;;
6751;SDS011;3413;47.680;9.166;2023-08-21T11:23:03;18.87;;;4.97;;
6751;SDS011;3413;47.680;9.166;2023-08-21T11:28:08;10.23;;;4.20;;
6751;SDS011;3413;47.680;9.166;2023-08-21T11:33:11;8.60;;;4.80;;
6751;SDS011;3413;47.680;9.166;2023-08-21T11:38:18;10.03;;;4.63;;
6751;SDS011;3413;47.680;9.166;2023-08-21T11:43:37;9.23;;;3.93;;
6751;SDS011;3413;47.680;9.166;2023-08-21T11:48:40;7.23;;;3.87;;
6751;SDS011;3413;47.680;9.166;2023-08-21T11:53:43;11.43;;;3.83;;
6751;SDS011;3413;47.680;9.166;2023-08-21T11:58:48;10.00;;;3.53;;
6751;SDS011;3413;47.680;9.166;2023-08-21T12:03:52;9.63;;;3.80;;
6751;SDS011;3413;47.680;9.166;2023-08-21T12:08:57;6.97;;;3.97;;
6751;SDS011;3413;47.680;9.166;2023-08-21T12:13:59;8.70;;;3.70;;
6751;SDS011;3413;47.680;9.166;2023-08-21T12:19:01;11.33;;;4.47;;
6751;SDS011;3413;47.680;9.166;2023-08-21T12:24:04;5.20;;;3.00;;
6751;SDS011;3413;47.680;9.166;2023-08-21T12:29:07;7.97;;;3.87;;
6751;SDS011;3413;47.680;9.166;2023-08-21T12:34:09;13.20;;;3.10;;
6751;SDS011;3413;47.680;9.166;2023-08-21T12:39:11;4.93;;;3.13;;
6751;SDS011;3413;47.680;9.166;2023-08-21T12:44:14;11.38;;;3.33;;
6751;SDS011;3413;47.680;9.166;2023-08-21T12:49:16;4.70;;;2.88;;
6751;SDS011;3413;47.680;9.166;2023-08-21T12:54:18;4.15;;;2.60;;
6751;SDS011;3413;47.680;9.166;2023-08-21T12:59:20;8.30;;;3.40;;
6751;SDS011;3413;47.680;9.166;2023-08-21T13:04:22;6.07;;;2.83;;
6751;SDS011;3413;47.680;9.166;2023-08-21T13:09:23;11.30;;;3.78;;
6751;SDS011;3413;47.680;9.166;2023-08-21T13:14:26;10.52;;;3.45;;
6751;SDS011;3413;47.680;9.166;2023-08-21T13:19:32;10.15;;;3.33;;
6751;SDS011;3413;47.680;9.166;2023-08-21T13:24:34;7.60;;;3.38;;
6751;SDS011;3413;47.680;9.166;2023-08-21T13:29:37;7.30;;;3.03;;
6751;SDS011;3413;47.680;9.166;2023-08-21T13:34:39;14.38;;;3.13;;
6751;SDS011;3413;47.680;9.166;2023-08-21T13:39:41;8.65;;;3.53;;
6751;SDS011;3413;47.680;9.166;2023-08-21T13:44:43;6.07;;;3.40;;
6751;SDS011;3413;47.680;9.166;2023-08-21T13:49:46;9.02;;;3.05;;
6751;SDS011;3413;47.680;9.166;2023-08-21T13:54:48;4.53;;;3.10;;
6751;SDS011;3413;47.680;9.166;2023-08-21T13:59:49;11.45;;;2.60;;
6751;SDS011;3413;47.680;9.166;2023-08-21T14:04:51;7.65;;;2.40;;
6751;SDS011;3413;47.680;9.166;2023-08-21T14:09:53;10.18;;;3.25;;
6751;SDS011;3413;47.680;9.166;2023-08-21T14:14:55;5.13;;;2.78;;
6751;SDS011;3413;47.680;9.166;2023-08-21T14:19:57;3.95;;;2.78;;
6751;SDS011;3413;47.680;9.166;2023-08-21T14:24:59;6.03;;;3.40;;
6751;SDS011;3413;47.680;9.166;2023-08-21T14:30:01;9.00;;;3.25;;
6751;SDS011;3413;47.680;9.166;2023-08-21T14:35:05;10.20;;;3.60;;
6751;SDS011;3413;47.680;9.166;2023-08-21T14:40:11;15.75;;;3.40;;
6751;SDS011;3413;47.680;9.166;2023-08-21T14:45:12;7.10;;;3.20;;
6751;SDS011;3413;47.680;9.166;2023-08-21T14:50:14;10.48;;;3.33;;
6751;SDS011;3413;47.680;9.166;2023-08-21T14:55:16;6.78;;;2.90;;
6751;SDS011;3413;47.680;9.166;2023-08-21T15:00:18;6.57;;;2.63;;
6751;SDS011;3413;47.680;9.166;2023-08-21T15:05:20;7.40;;;2.95;;
6751;SDS011;3413;47.680;9.166;2023-08-21T15:10:23;8.82;;;2.53;;
6751;SDS011;3413;47.680;9.166;2023-08-21T15:15:25;9.18;;;2.53;;
6751;SDS011;3413;47.680;9.166;2023-08-21T15:20:27;5.28;;;2.67;;
6751;SDS011;3413;47.680;9.166;2023-08-21T15:25:29;5.32;;;2.88;;
6751;SDS011;3413;47.680;9.166;2023-08-21T15:30:31;5.43;;;2.40;;
6751;SDS011;3413;47.680;9.166;2023-08-21T15:35:33;11.43;;;2.58;;
6751;SDS011;3413;47.680;9.166;2023-08-21T15:40:34;6.35;;;2.50;;
6751;SDS011;3413;47.680;9.166;2023-08-21T15:45:37;3.00;;;1.83;;
6751;SDS011;3413;47.680;9.166;2023-08-21T15:50:39;4.07;;;2.35;;
6751;SDS011;3413;47.680;9.166;2023-08-21T15:55:41;4.70;;;2.67;;
6751;SDS011;3413;47.680;9.166;2023-08-21T16:00:43;5.20;;;2.40;;
6751;SDS011;3413;47.680;9.166;2023-08-21T16:05:45;7.03;;;2.20;;
6751;SDS011;3413;47.680;9.166;2023-08-21T16:10:47;6.75;;;2.17;;
6751;SDS011;3413;47.680;9.166;2023-08-21T16:15:50;4.75;;;3.00;;
6751;SDS011;3413;47.680;9.166;2023-08-21T16:20:52;3.42;;;2.05;;
6751;SDS011;3413;47.680;9.166;2023-08-21T16:25:54;5.88;;;2.17;;
6751;SDS011;3413;47.680;9.166;2023-08-21T16:30:55;4.60;;;2.40;;
6751;SDS011;3413;47.680;9.166;2023-08-21T16:35:57;5.43;;;2.20;;
6751;SDS011;3413;47.680;9.166;2023-08-21T16:40:59;6.07;;;1.83;;
6751;SDS011;3413;47.680;9.166;2023-08-21T16:46:04;6.25;;;2.00;;
6751;SDS011;3413;47.680;9.166;2023-08-21T16:51:06;5.63;;;2.00;;
6751;SDS011;3413;47.680;9.166;2023-08-21T16:56:08;6.85;;;2.30;;
6751;SDS011;3413;47.680;9.166;2023-08-21T17:01:10;3.30;;;1.75;;
6751;SDS011;3413;47.680;9.166;2023-08-21T17:06:12;4.50;;;2.15;;
6751;SDS011;3413;47.680;9.166;2023-08-21T17:11:15;6.55;;;2.45;;
6751;SDS011;3413;47.680;9.166;2023-08-21T17:16:17;4.95;;;2.08;;
6751;SDS011;3413;47.680;9.166;2023-08-21T17:21:19;6.43;;;1.90;;
6751;SDS011;3413;47.680;9.166;2023-08-21T17:26:21;4.63;;;2.08;;
6751;SDS011;3413;47.680;9.166;2023-08-21T17:31:23;3.80;;;1.73;;
6751;SDS011;3413;47.680;9.166;2023-08-21T17:36:25;5.40;;;2.97;;
6751;SDS011;3413;47.680;9.166;2023-08-21T17:41:27;6.72;;;2.25;;
6751;SDS011;3413;47.680;9.166;2023-08-21T17:46:30;9.20;;;2.30;;
6751;SDS011;3413;47.680;9.166;2023-08-21T17:51:32;5.53;;;2.67;;
6751;SDS011;3413;47.680;9.166;2023-08-21T17:56:34;8.98;;;2.72;;
6751;SDS011;3413;47.680;9.166;2023-08-21T18:01:36;7.32;;;2.53;;
6751;SDS011;3413;47.680;9.166;2023-08-21T18:06:38;4.82;;;2.38;;
6751;SDS011;3413;47.680;9.166;2023-08-21T18:11:40;5.93;;;2.20;;
6751;SDS011;3413;47.680;9.166;2023-08-21T18:16:42;7.00;;;2.03;;
6751;SDS011;3413;47.680;9.166;2023-08-21T18:21:47;7.28;;;2.45;;
6751;SDS011;3413;47.680;9.166;2023-08-21T18:26:49;5.22;;;2.70;;
6751;SDS011;3413;47.680;9.166;2023-08-21T18:31:52;7.00;;;2.42;;
6751;SDS011;3413;47.680;9.166;2023-08-21T18:36:58;6.50;;;2.93;;
6751;SDS011;3413;47.680;9.166;2023-08-21T18:42:01;4.73;;;2.13;;
6751;SDS011;3413;47.680;9.166;2023-08-21T18:47:03;7.27;;;3.37;;
6751;SDS011;3413;47.680;9.166;2023-08-21T18:52:05;12.87;;;5.30;;
6751;SDS011;3413;47.680;9.166;2023-08-21T18:57:07;39.93;;;14.33;;
6751;SDS011;3413;47.680;9.166;2023-08-21T19:02:09;18.73;;;7.30;;
6751;SDS011;3413;47.680;9.166;2023-08-21T19:07:11;5.20;;;2.87;;
6751;SDS011;3413;47.680;9.166;2023-08-21T19:12:14;9.23;;;3.20;;
6751;SDS011;3413;47.680;9.166;2023-08-21T19:17:16;13.03;;;2.90;;
6751;SDS011;3413;47.680;9.166;2023-08-21T19:22:18;5.47;;;2.37;;
6751;SDS011;3413;47.680;9.166;2023-08-21T19:27:20;4.80;;;2.13;;
6751;SDS011;3413;47.680;9.166;2023-08-21T19:32:22;6.10;;;2.93;;
6751;SDS011;3413;47.680;9.166;2023-08-21T19:37:24;6.43;;;2.97;;
6751;SDS011;3413;47.680;9.166;2023-08-21T19:42:26;5.87;;;2.60;;
6751;SDS011;3413;47.680;9.166;2023-08-21T19:47:29;5.50;;;3.10;;
6751;SDS011;3413;47.680;9.166;2023-08-21T19:52:31;5.13;;;2.97;;
6751;SDS011;3413;47.680;9.166;2023-08-21T19:57:33;6.50;;;2.87;;
6751;SDS011;3413;47.680;9.166;2023-08-21T20:02:35;5.43;;;2.47;;
6751;SDS011;3413;47.680;9.166;2023-08-21T20:07:38;10.90;;;3.57;;
6751;SDS011;3413;47.680;9.166;2023-08-21T20:12:42;8.40;;;2.80;;
6751;SDS011;3413;47.680;9.166;2023-08-21T20:17:44;7.10;;;2.70;;
6751;SDS011;3413;47.680;9.166;2023-08-21T20:22:46;5.57;;;2.60;;
6751;SDS011;3413;47.680;9.166;2023-08-21T20:27:48;4.83;;;2.70;;
6751;SDS011;3413;47.680;9.166;2023-08-21T20:32:50;6.50;;;2.53;;
6751;SDS011;3413;47.680;9.166;2023-08-21T20:37:52;14.87;;;3.13;;
6751;SDS011;3413;47.680;9.166;2023-08-21T20:42:54;6.77;;;3.37;;
6751;SDS011;3413;47.680;9.166;2023-08-21T20:47:56;8.17;;;2.80;;
6751;SDS011;3413;47.680;9.166;2023-08-21T20:52:58;15.13;;;3.10;;
6751;SDS011;3413;47.680;9.166;2023-08-21T20:58:00;6.13;;;3.00;;
6751;SDS011;3413;47.680;9.166;2023-08-21T21:03:04;8.10;;;2.70;;
6751;SDS011;3413;47.680;9.166;2023-08-21T21:08:06;4.87;;;2.53;;
6751;SDS011;3413;47.680;9.166;2023-08-21T21:13:08;6.10;;;3.43;;
6751;SDS011;3413;47.680;9.166;2023-08-21T21:18:10;6.50;;;3.10;;
6751;SDS011;3413;47.680;9.166;2023-08-21T21:23:12;8.77;;;2.60;;
6751;SDS011;3413;47.680;9.166;2023-08-21T21:28:13;7.00;;;3.00;;
6751;SDS011;3413;47.680;9.166;2023-08-21T21:33:15;11.37;;;3.17;;
6751;SDS011;3413;47.680;9.166;2023-08-21T21:38:17;6.37;;;3.43;;
6751;SDS011;3413;47.680;9.166;2023-08-21T21:43:22;4.77;;;2.60;;
6751;SDS011;3413;47.680;9.166;2023-08-21T21:48:29;5.97;;;3.60;;
6751;SDS011;3413;47.680;9.166;2023-08-21T21:53:31;9.77;;;3.90;;
6751;SDS011;3413;47.680;9.166;2023-08-21T21:58:33;8.17;;;3.23;;
6751;SDS011;3413;47.680;9.166;2023-08-21T22:03:36;5.73;;;3.37;;
6751;SDS011;3413;47.680;9.166;2023-08-21T22:08:39;7.60;;;3.27;;
6751;SDS011;3413;47.680;9.166;2023-08-21T22:13:42;7.40;;;3.77;;
6751;SDS011;3413;47.680;9.166;2023-08-21T22:18:44;6.60;;;3.50;;
6751;SDS011;3413;47.680;9.166;2023-08-21T22:23:46;5.80;;;3.13;;
6751;SDS011;3413;47.680;9.166;2023-08-21T22:28:48;10.53;;;3.50;;
6751;SDS011;3413;47.680;9.166;2023-08-21T22:33:50;9.07;;;3.43;;
6751;SDS011;3413;47.680;9.166;2023-08-21T22:38:52;7.33;;;3.53;;
6751;SDS011;3413;47.680;9.166;2023-08-21T22:43:54;9.50;;;3.27;;
6751;SDS011;3413;47.680;9.166;2023-08-21T22:48:56;6.93;;;3.93;;
6751;SDS011;3413;47.680;9.166;2023-08-21T22:53:58;7.83;;;3.93;;
6751;SDS011;3413;47.680;9.166;2023-08-21T22:59:00;6.70;;;3.70;;
6751;SDS011;3413;47.680;9.166;2023-08-21T23:04:02;13.07;;;3.70;;
6751;SDS011;3413;47.680;9.166;2023-08-21T23:09:04;7.80;;;3.80;;
6751;SDS011;3413;47.680;9.166;2023-08-21T23:14:06;15.77;;;4.30;;
6751;SDS011;3413;47.680;9.166;2023-08-21T23:19:14;12.83;;;4.87;;
6751;SDS011;3413;47.680;9.166;2023-08-21T23:24:17;7.50;;;4.00;;
6751;SDS011;3413;47.680;9.166;2023-08-21T23:29:19;6.60;;;3.70;;
6751;SDS011;3413;47.680;9.166;2023-08-21T23:34:20;7.17;;;4.33;;
6751;SDS011;3413;47.680;9.166;2023-08-21T23:39:22;11.17;;;3.10;;
6751;SDS011;3413;47.680;9.166;2023-08-21T23:44:24;5.37;;;3.73;;
6751;SDS011;3413;47.680;9.166;2023-08-21T23:49:27;11.40;;;4.20;;
6751;SDS011;3413;47.680;9.166;2023-08-21T23:54:28;8.40;;;3.70;;
6751;SDS011;3413;47.680;9.166;2023-08-21T23:59:30;6.90;;;4.07;;
